createdAt,value
2022-12-04T00:01:57.685Z,95704.06
2022-12-04T00:04:24.073Z,95709.47
2022-12-04T00:06:54.102Z,95712.38
2022-12-04T00:09:24.745Z,95711.69
2022-12-04T00:11:51.493Z,95717.53
2022-12-04T00:14:17.803Z,95723.25
2022-12-04T00:16:44.532Z,95716.22
2022-12-04T00:19:11.326Z,95719.13
2022-12-04T00:21:37.777Z,95704.47
2022-12-04T00:24:04.537Z,95699.59
2022-12-04T00:26:31.580Z,95708.09
2022-12-04T00:28:57.933Z,95702.56
2022-12-04T00:31:27.200Z,95712.53
2022-12-04T00:33:54.055Z,95712.66
2022-12-04T00:36:23.157Z,95714.25
2022-12-04T00:38:50.136Z,95708.41
2022-12-04T00:41:18.985Z,95703.88
2022-12-04T00:43:45.883Z,95720.66
2022-12-04T00:46:12.737Z,95720.31
2022-12-04T00:48:39.457Z,95717.09
2022-12-04T00:51:11.103Z,95720.50
2022-12-04T00:53:38.009Z,95732.34
2022-12-04T00:56:10.325Z,95719.81
2022-12-04T00:58:37.198Z,95717.91
2022-12-04T01:01:09.940Z,95722.81
2022-12-04T01:03:36.997Z,95720.97
2022-12-04T01:06:04.541Z,95718.53
2022-12-04T01:08:31.471Z,95725.06
2022-12-04T01:10:58.423Z,95719.47
2022-12-04T01:13:25.606Z,95723.75
2022-12-04T01:15:52.019Z,95715.91
2022-12-04T01:18:18.869Z,95721.78
2022-12-04T01:20:50.247Z,95721.84
2022-12-04T01:23:17.636Z,95720.22
2022-12-04T01:25:52.559Z,95729.66
2022-12-04T01:28:18.968Z,95728.34
2022-12-04T01:30:45.590Z,95731.63
2022-12-04T01:33:12.368Z,95727.06
2022-12-04T01:35:38.764Z,95727.06
2022-12-04T01:38:05.096Z,95727.19
2022-12-04T01:40:31.984Z,95715.75
2022-12-04T01:42:59.698Z,95722.31
2022-12-04T01:45:42.986Z,95712.69
2022-12-04T01:48:32.318Z,95715.00
2022-12-04T01:51:13.719Z,95713.88
2022-12-04T01:53:44.390Z,95717.94
2022-12-04T01:56:11.119Z,95705.84
2022-12-04T01:58:42.966Z,95701.16
2022-12-04T02:01:10.491Z,95708.84
2022-12-04T02:03:38.738Z,95701.63
2022-12-04T02:06:06.772Z,95706.34
2022-12-04T02:08:34.711Z,95703.28
2022-12-04T02:11:07.162Z,95710.44
2022-12-04T02:13:49.395Z,95706.84
2022-12-04T02:16:45.378Z,95703.09
2022-12-04T02:19:21.727Z,95698.03
2022-12-04T02:21:52.964Z,95688.09
2022-12-04T02:24:32.229Z,95690.53
2022-12-04T02:27:06.118Z,95673.41
2022-12-04T02:29:59.007Z,95688.41
2022-12-04T02:33:04.222Z,95680.09
2022-12-04T02:35:36.325Z,95683.03
2022-12-04T02:38:14.216Z,95674.38
2022-12-04T02:41:01.613Z,95664.09
2022-12-04T02:43:39.352Z,95655.44
2022-12-04T02:46:11.938Z,95654.63
2022-12-04T02:48:41.564Z,95651.03
2022-12-04T02:51:11.596Z,95649.56
2022-12-04T02:53:45.115Z,95646.47
2022-12-04T02:56:16.686Z,95646.63
2022-12-04T02:58:49.866Z,95642.06
2022-12-04T03:01:21.864Z,95637.81
2022-12-04T03:03:55.524Z,95628.81
2022-12-04T03:06:25.472Z,95639.75
2022-12-04T03:09:03.167Z,95634.72
2022-12-04T03:11:31.849Z,95632.09
2022-12-04T03:14:08.478Z,95625.19
2022-12-04T03:16:41.040Z,95618.69
2022-12-04T03:19:14.027Z,95616.06
2022-12-04T03:21:46.627Z,95614.75
2022-12-04T03:24:19.256Z,95615.41
2022-12-04T03:26:57.178Z,95610.00
2022-12-04T03:29:30.868Z,95604.97
2022-12-04T03:32:22.210Z,95610.84
2022-12-04T03:34:58.826Z,95621.47
2022-12-04T03:37:41.910Z,95624.91
2022-12-04T03:40:22.226Z,95634.38
2022-12-04T03:42:56.552Z,95632.41
2022-12-04T03:45:40.064Z,95625.53
2022-12-04T03:48:21.225Z,95632.22
2022-12-04T03:50:59.103Z,95652.66
2022-12-04T03:53:35.382Z,95648.25
2022-12-04T03:56:15.790Z,95648.91
2022-12-04T03:58:49.570Z,95650.34
2022-12-04T04:01:20.840Z,95652.66
2022-12-04T04:03:51.797Z,95657.38
2022-12-04T04:06:28.321Z,95660.16
2022-12-04T04:09:00.472Z,95666.00
2022-12-04T04:11:33.312Z,95658.00
2022-12-04T04:14:25.882Z,95665.69
2022-12-04T04:17:16.599Z,95661.75
2022-12-04T04:20:06.718Z,95661.13
2022-12-04T04:22:56.230Z,95652.16
2022-12-04T04:25:25.972Z,95651.66
2022-12-04T04:27:54.056Z,95649.38
2022-12-04T04:30:21.306Z,95659.81
2022-12-04T04:33:08.495Z,95653.66
2022-12-04T04:36:00.865Z,95659.84
2022-12-04T04:38:45.759Z,95655.56
2022-12-04T04:41:24.149Z,95651.00
2022-12-04T04:44:15.353Z,95637.28
2022-12-04T04:46:52.311Z,95639.94
2022-12-04T04:49:23.364Z,95636.28
2022-12-04T04:51:50.039Z,95643.00
2022-12-04T04:54:17.738Z,95643.50
2022-12-04T04:56:45.870Z,95654.59
2022-12-04T04:59:12.730Z,95648.69
2022-12-04T05:01:41.786Z,95648.66
2022-12-04T05:04:08.217Z,95651.41
2022-12-04T05:06:34.597Z,95649.97
2022-12-04T05:09:01.531Z,95654.59
2022-12-04T05:11:27.858Z,95653.75
2022-12-04T05:13:54.213Z,95654.59
2022-12-04T05:16:20.942Z,95646.28
2022-12-04T05:19:05.805Z,95647.75
2022-12-04T05:21:33.715Z,95650.34
2022-12-04T05:24:00.535Z,95650.47
2022-12-04T05:26:26.874Z,95647.91
2022-12-04T05:28:53.489Z,95655.91
2022-12-04T05:31:20.559Z,95655.84
2022-12-04T05:33:46.979Z,95650.16
2022-12-04T05:36:13.374Z,95649.66
2022-12-04T05:38:40.096Z,95657.03
2022-12-04T05:41:07.176Z,95655.56
2022-12-04T05:43:34.083Z,95649.38
2022-12-04T05:46:02.762Z,95643.84
2022-12-04T05:48:29.176Z,95631.09
2022-12-04T05:50:55.930Z,95633.38
2022-12-04T05:53:22.305Z,95633.38
2022-12-04T05:55:59.652Z,95638.31
2022-12-04T05:58:26.434Z,95638.13
2022-12-04T06:00:53.013Z,95638.78
2022-12-04T06:03:19.859Z,95632.09
2022-12-04T06:05:46.523Z,95627.00
2022-12-04T06:08:13.198Z,95622.28
2022-12-04T06:10:40.150Z,95626.03
2022-12-04T06:13:07.027Z,95624.25
2022-12-04T06:15:38.318Z,95609.88
2022-12-04T06:18:04.895Z,95616.22
2022-12-04T06:20:31.597Z,95605.00
2022-12-04T06:22:57.973Z,95609.22
2022-12-04T06:25:24.659Z,95601.22
2022-12-04T06:27:51.962Z,95604.97
2022-12-04T06:30:18.321Z,95611.19
2022-12-04T06:32:44.996Z,95608.91
2022-12-04T06:35:11.713Z,95612.19
2022-12-04T06:37:38.479Z,95625.56
2022-12-04T06:40:05.636Z,95619.69
2022-12-04T06:42:31.951Z,95627.84
2022-12-04T06:44:58.915Z,95634.88
2022-12-04T06:47:25.247Z,95629.97
2022-12-04T06:49:51.679Z,95635.03
2022-12-04T06:52:18.803Z,95638.47
2022-12-04T06:54:45.677Z,95649.03
2022-12-04T06:57:11.986Z,95650.00
2022-12-04T06:59:38.643Z,95651.31
2022-12-04T07:02:05.297Z,95646.75
2022-12-04T07:04:31.659Z,95651.78
2022-12-04T07:06:57.970Z,95659.50
2022-12-04T07:09:24.671Z,95654.91
2022-12-04T07:11:51.025Z,95651.47
2022-12-04T07:14:17.775Z,95647.22
2022-12-04T07:16:44.238Z,95657.22
2022-12-04T07:19:13.569Z,95660.63
2022-12-04T07:21:40.869Z,95672.53
2022-12-04T07:24:07.333Z,95679.09
2022-12-04T07:26:34.095Z,95664.53
2022-12-04T07:29:00.477Z,95664.69
2022-12-04T07:31:28.908Z,95660.75
2022-12-04T07:33:56.065Z,95658.81
2022-12-04T07:36:24.176Z,95660.78
2022-12-04T07:38:51.277Z,95662.59
2022-12-04T07:41:19.561Z,95653.63
2022-12-04T07:43:46.230Z,95657.88
2022-12-04T07:46:18.210Z,95642.84
2022-12-04T07:48:45.116Z,95648.56
2022-12-04T07:51:17.274Z,95647.09
2022-12-04T07:53:44.456Z,95655.09
2022-12-04T07:56:12.712Z,95656.56
2022-12-04T07:58:39.898Z,95664.53
2022-12-04T08:01:16.863Z,95663.66
2022-12-04T08:03:48.132Z,95671.19
2022-12-04T08:06:17.696Z,95675.41
2022-12-04T08:08:44.070Z,95666.78
2022-12-04T08:11:13.624Z,95664.63
2022-12-04T08:13:40.395Z,95660.44
2022-12-04T08:16:08.763Z,95648.69
2022-12-04T08:18:35.367Z,95664.19
2022-12-04T08:21:11.665Z,95665.69
2022-12-04T08:23:39.434Z,95670.59
2022-12-04T08:26:06.812Z,95666.63
2022-12-04T08:28:34.269Z,95666.16
2022-12-04T08:31:10.092Z,95665.72
2022-12-04T08:33:37.054Z,95660.44
2022-12-04T08:36:07.598Z,95668.75
2022-12-04T08:38:34.078Z,95678.84
2022-12-04T08:41:02.350Z,95679.13
2022-12-04T08:43:29.537Z,95674.09
2022-12-04T08:46:02.030Z,95667.56
2022-12-04T08:48:29.327Z,95664.91
2022-12-04T08:50:55.928Z,95659.06
2022-12-04T08:53:22.489Z,95656.41
2022-12-04T08:55:49.281Z,95650.28
2022-12-04T08:58:15.670Z,95651.59
2022-12-04T09:00:42.489Z,95642.78
2022-12-04T09:03:15.802Z,95637.41
2022-12-04T09:05:42.846Z,95642.47
2022-12-04T09:08:09.295Z,95631.69
2022-12-04T09:10:36.995Z,95620.91
2022-12-04T09:13:03.817Z,95615.72
2022-12-04T09:15:30.387Z,95619.66
2022-12-04T09:17:57.124Z,95624.19
2022-12-04T09:20:23.733Z,95623.19
2022-12-04T09:23:03.416Z,95639.06
2022-12-04T09:25:31.664Z,95655.00
2022-12-04T09:27:58.897Z,95673.06
2022-12-04T09:30:25.519Z,95681.97
2022-12-04T09:32:52.214Z,95673.81
2022-12-04T09:35:19.333Z,95638.69
2022-12-04T09:37:45.659Z,95640.16
2022-12-04T09:40:27.527Z,95662.06
2022-12-04T09:43:30.213Z,95651.75
2022-12-04T09:46:02.430Z,95648.66
2022-12-04T09:48:35.803Z,95646.06
2022-12-04T09:51:06.266Z,95642.13
2022-12-04T09:54:10.735Z,95640.66
2022-12-04T09:56:37.572Z,95639.03
2022-12-04T09:59:25.919Z,95649.84
2022-12-04T10:02:01.303Z,95640.97
2022-12-04T10:04:27.954Z,95629.16
2022-12-04T10:07:19.701Z,95627.00
2022-12-04T10:09:55.875Z,95610.75
2022-12-04T10:12:31.869Z,95596.81
2022-12-04T10:15:04.577Z,95590.94
2022-12-04T10:17:49.625Z,95602.06
2022-12-04T10:20:28.090Z,95614.91
2022-12-04T10:23:18.262Z,95604.41
2022-12-04T10:25:44.573Z,95595.66
2022-12-04T10:28:10.831Z,95584.91
2022-12-04T10:30:41.787Z,95572.69
2022-12-04T10:33:20.125Z,95586.81
2022-12-04T10:35:54.771Z,95593.44
2022-12-04T10:38:33.360Z,95593.56
2022-12-04T10:41:15.022Z,95594.41
2022-12-04T10:43:41.655Z,95596.91
2022-12-04T10:46:14.497Z,95600.59
2022-12-04T10:48:43.168Z,95608.84
2022-12-04T10:51:21.667Z,95608.09
2022-12-04T10:53:49.413Z,95613.97
2022-12-04T10:56:18.061Z,95601.56
2022-12-04T10:58:56.574Z,95612.56
2022-12-04T11:01:23.825Z,95602.19
2022-12-04T11:04:07.985Z,95602.34
2022-12-04T11:06:35.611Z,95604.78
2022-12-04T11:09:03.588Z,95594.88
2022-12-04T11:11:33.603Z,95589.72
2022-12-04T11:14:22.524Z,95595.41
2022-12-04T11:17:00.469Z,95585.53
2022-12-04T11:19:29.474Z,95584.16
2022-12-04T11:22:05.826Z,95577.06
2022-12-04T11:24:37.733Z,95589.63
2022-12-04T11:27:07.253Z,95591.13
2022-12-04T11:29:40.806Z,95581.84
2022-12-04T11:32:16.950Z,95565.78
2022-12-04T11:34:45.562Z,95558.06
2022-12-04T11:37:26.258Z,95579.41
2022-12-04T11:39:55.246Z,95571.56
2022-12-04T11:42:30.143Z,95570.22
2022-12-04T11:45:02.828Z,95560.31
2022-12-04T11:47:32.145Z,95552.75
2022-12-04T11:50:03.670Z,95540.78
2022-12-04T11:52:43.765Z,95528.97
2022-12-04T11:55:28.891Z,95524.63
2022-12-04T11:58:20.681Z,95497.97
2022-12-04T12:01:13.300Z,95477.38
2022-12-04T12:03:52.414Z,95490.53
2022-12-04T12:06:40.031Z,95499.34
2022-12-04T12:09:06.647Z,95512.97
2022-12-04T12:11:40.097Z,95522.22
2022-12-04T12:14:41.413Z,95530.66
2022-12-04T12:17:25.544Z,95529.03
2022-12-04T12:20:01.596Z,95509.00
2022-12-04T12:22:52.913Z,95524.84
2022-12-04T12:25:33.490Z,95517.53
2022-12-04T12:28:24.872Z,95524.94
2022-12-04T12:31:12.917Z,95514.41
2022-12-04T12:34:01.872Z,95504.97
2022-12-04T12:36:34.426Z,95515.38
2022-12-04T12:39:12.584Z,95520.88
2022-12-04T12:41:46.313Z,95520.19
2022-12-04T12:44:24.808Z,95531.06
2022-12-04T12:47:02.930Z,95524.38
2022-12-04T12:49:40.902Z,95522.38
2022-12-04T12:52:28.663Z,95522.38
2022-12-04T12:55:01.623Z,95534.97
2022-12-04T12:57:43.407Z,95543.00
2022-12-04T13:00:23.086Z,95550.50
2022-12-04T13:03:15.303Z,95543.31
2022-12-04T13:05:49.580Z,95543.44
2022-12-04T13:08:26.311Z,95537.28
2022-12-04T13:11:19.353Z,95525.63
2022-12-04T13:13:49.168Z,95506.53
2022-12-04T13:16:36.506Z,95518.53
2022-12-04T13:19:23.049Z,95508.81
2022-12-04T13:22:13.830Z,95509.78
2022-12-04T13:24:55.344Z,95512.50
2022-12-04T13:27:42.434Z,95504.53
2022-12-04T13:30:31.841Z,95507.38
2022-12-04T13:33:29.482Z,95500.75
2022-12-04T13:36:16.802Z,95501.03
2022-12-04T13:39:16.429Z,95504.56
2022-12-04T13:41:42.910Z,95508.09
2022-12-04T13:44:23.187Z,95498.34
2022-12-04T13:46:56.147Z,95499.00
2022-12-04T13:49:29.977Z,95511.22
2022-12-04T13:51:58.156Z,95502.44
2022-12-04T13:54:56.773Z,95488.81
2022-12-04T13:57:25.674Z,95482.22
2022-12-04T14:00:05.569Z,95487.81
2022-12-04T14:02:38.271Z,95494.88
2022-12-04T14:05:08.108Z,95491.00
2022-12-04T14:07:37.644Z,95473.00
2022-12-04T14:10:26.885Z,95480.16
2022-12-04T14:13:21.195Z,95478.19
2022-12-04T14:15:48.750Z,95497.66
2022-12-04T14:18:29.110Z,95503.31
2022-12-04T14:21:02.320Z,95512.28
2022-12-04T14:23:42.852Z,95519.63
2022-12-04T14:26:33.113Z,95531.34
2022-12-04T14:29:27.868Z,95528.66
2022-12-04T14:31:57.712Z,95538.09
2022-12-04T14:34:29.608Z,95544.75
2022-12-04T14:36:57.258Z,95544.84
2022-12-04T14:39:36.989Z,95549.59
2022-12-04T14:42:25.176Z,95554.84
2022-12-04T14:44:58.441Z,95553.66
2022-12-04T14:47:54.114Z,95559.28
2022-12-04T14:50:39.294Z,95541.59
2022-12-04T14:53:14.787Z,95540.03
2022-12-04T14:55:52.764Z,95540.97
2022-12-04T14:58:30.093Z,95546.22
2022-12-04T15:01:04.699Z,95540.16
2022-12-04T15:03:44.562Z,95545.47
2022-12-04T15:06:22.464Z,95544.63
2022-12-04T15:09:14.798Z,95551.81
2022-12-04T15:12:16.919Z,95550.09
2022-12-04T15:14:48.683Z,95551.47
2022-12-04T15:17:17.407Z,95560.03
2022-12-04T15:19:44.177Z,95576.38
2022-12-04T15:22:21.632Z,95566.56
2022-12-04T15:24:48.524Z,95571.06
2022-12-04T15:27:17.133Z,95571.38
2022-12-04T15:29:49.416Z,95561.97
2022-12-04T15:32:19.121Z,95568.06
2022-12-04T15:34:50.037Z,95561.50
2022-12-04T15:37:21.806Z,95564.38
2022-12-04T15:39:49.861Z,95566.56
2022-12-04T15:42:27.155Z,95554.28
2022-12-04T15:45:03.810Z,95546.34
2022-12-04T15:47:49.491Z,95553.75
2022-12-04T15:50:15.749Z,95547.50
2022-12-04T15:53:01.001Z,95549.59
2022-12-04T15:55:30.359Z,95556.78
2022-12-04T15:58:05.055Z,95556.66
2022-12-04T16:00:40.043Z,95548.28
2022-12-04T16:03:23.504Z,95542.75
2022-12-04T16:05:50.017Z,95542.00
2022-12-04T16:08:29.441Z,95537.13
2022-12-04T16:11:05.449Z,95540.19
2022-12-04T16:13:38.630Z,95519.84
2022-12-04T16:16:08.087Z,95528.44
2022-12-04T16:18:34.840Z,95530.81
2022-12-04T16:21:01.301Z,95531.97
2022-12-04T16:23:27.654Z,95521.41
2022-12-04T16:25:54.501Z,95530.56
2022-12-04T16:28:20.965Z,95521.94
2022-12-04T16:30:47.559Z,95518.44
2022-12-04T16:33:16.017Z,95519.84
2022-12-04T16:35:42.797Z,95516.75
2022-12-04T16:38:15.446Z,95513.34
2022-12-04T16:40:43.170Z,95513.50
2022-12-04T16:43:13.018Z,95502.16
2022-12-04T16:45:42.903Z,95498.31
2022-12-04T16:48:09.214Z,95505.41
2022-12-04T16:50:36.068Z,95501.94
2022-12-04T16:53:02.921Z,95501.28
2022-12-04T16:55:39.286Z,95496.69
2022-12-04T16:58:08.254Z,95482.31
2022-12-04T17:00:36.290Z,95487.97
2022-12-04T17:03:04.235Z,95489.25
2022-12-04T17:05:33.781Z,95484.53
2022-12-04T17:08:01.348Z,95483.34
2022-12-04T17:10:29.313Z,95500.88
2022-12-04T17:12:57.026Z,95518.44
2022-12-04T17:15:23.353Z,95539.03
2022-12-04T17:17:50.196Z,95544.69
2022-12-04T17:20:19.303Z,95562.84
2022-12-04T17:22:45.729Z,95567.97
2022-12-04T17:25:12.502Z,95573.66
2022-12-04T17:27:39.385Z,95572.81
2022-12-04T17:30:08.669Z,95584.31
2022-12-04T17:32:35.203Z,95583.66
2022-12-04T17:35:02.786Z,95590.69
2022-12-04T17:37:29.244Z,95574.66
2022-12-04T17:39:55.611Z,95572.19
2022-12-04T17:42:22.200Z,95571.91
2022-12-04T17:44:48.685Z,95561.84
2022-12-04T17:47:15.171Z,95556.38
2022-12-04T17:49:41.639Z,95553.53
2022-12-04T17:52:07.966Z,95560.78
2022-12-04T17:54:34.582Z,95562.47
2022-12-04T17:57:01.686Z,95564.16
2022-12-04T17:59:28.084Z,95554.91
2022-12-04T18:01:54.410Z,95560.56
2022-12-04T18:04:20.919Z,95564.75
2022-12-04T18:06:47.330Z,95557.03
2022-12-04T18:09:16.151Z,95568.13
2022-12-04T18:11:45.936Z,95575.28
2022-12-04T18:14:17.694Z,95569.47
2022-12-04T18:16:47.666Z,95570.78
2022-12-04T18:19:14.969Z,95574.06
2022-12-04T18:21:41.818Z,95586.34
2022-12-04T18:24:08.802Z,95592.53
2022-12-04T18:26:37.683Z,95578.69
2022-12-04T18:29:04.834Z,95589.59
2022-12-04T18:31:32.540Z,95590.91
2022-12-04T18:33:59.017Z,95591.56
2022-12-04T18:36:27.905Z,95581.16
2022-12-04T18:38:56.897Z,95592.16
2022-12-04T18:41:24.070Z,95593.44
2022-12-04T18:43:50.973Z,95587.72
2022-12-04T18:46:18.791Z,95591.69
2022-12-04T18:48:46.603Z,95595.31
2022-12-04T18:51:18.084Z,95593.88
2022-12-04T18:53:44.578Z,95603.06
2022-12-04T18:56:10.957Z,95600.31
2022-12-04T18:58:37.696Z,95602.47
2022-12-04T19:01:08.777Z,95604.09
2022-12-04T19:03:35.234Z,95607.03
2022-12-04T19:06:02.933Z,95603.44
2022-12-04T19:08:33.249Z,95601.38
2022-12-04T19:11:11.999Z,95605.03
2022-12-04T19:13:38.402Z,95601.47
2022-12-04T19:16:05.109Z,95612.19
2022-12-04T19:18:32.299Z,95606.31
2022-12-04T19:20:58.651Z,95607.91
2022-12-04T19:23:25.048Z,95614.16
2022-12-04T19:25:59.275Z,95611.88
2022-12-04T19:28:27.579Z,95619.13
2022-12-04T19:30:55.291Z,95618.47
2022-12-04T19:33:22.790Z,95632.53
2022-12-04T19:36:03.694Z,95627.94
2022-12-04T19:38:31.937Z,95624.56
2022-12-04T19:41:10.406Z,95630.44
2022-12-04T19:43:39.347Z,95636.63
2022-12-04T19:46:07.236Z,95646.63
2022-12-04T19:48:34.375Z,95644.53
2022-12-04T19:51:20.867Z,95653.34
2022-12-04T19:53:48.147Z,95651.50
2022-12-04T19:56:17.598Z,95655.91
2022-12-04T19:58:45.006Z,95659.56
2022-12-04T20:01:14.649Z,95654.50
2022-12-04T20:03:41.549Z,95671.84
2022-12-04T20:06:14.105Z,95677.19
2022-12-04T20:08:41.366Z,95670.78
2022-12-04T20:11:11.760Z,95674.72
2022-12-04T20:13:40.026Z,95671.38
2022-12-04T20:16:09.473Z,95677.59
2022-12-04T20:18:37.631Z,95674.66
2022-12-04T20:21:10.834Z,95661.66
2022-12-04T20:23:42.263Z,95675.97
2022-12-04T20:26:12.020Z,95666.22
2022-12-04T20:28:39.087Z,95671.28
2022-12-04T20:31:21.104Z,95675.00
2022-12-04T20:33:49.458Z,95681.91
2022-12-04T20:36:18.569Z,95687.94
2022-12-04T20:38:45.442Z,95681.03
2022-12-04T20:41:15.658Z,95688.97
2022-12-04T20:43:43.261Z,95689.94
2022-12-04T20:46:15.488Z,95688.38
2022-12-04T20:48:48.063Z,95690.34
2022-12-04T20:51:17.718Z,95691.78
2022-12-04T20:53:45.659Z,95681.56
2022-12-04T20:56:12.683Z,95683.16
2022-12-04T20:58:40.083Z,95692.97
2022-12-04T21:01:15.774Z,95682.78
2022-12-04T21:03:43.062Z,95693.31
2022-12-04T21:06:21.266Z,95692.38
2022-12-04T21:08:56.672Z,95696.34
2022-12-04T21:11:45.056Z,95701.88
2022-12-04T21:14:33.457Z,95693.41
2022-12-04T21:17:01.057Z,95692.72
2022-12-04T21:19:27.465Z,95696.31
2022-12-04T21:21:53.983Z,95695.00
2022-12-04T21:24:22.797Z,95700.25
2022-12-04T21:26:49.149Z,95703.47
2022-12-04T21:29:16.258Z,95695.91
2022-12-04T21:31:43.169Z,95700.97
2022-12-04T21:34:11.985Z,95697.53
2022-12-04T21:36:38.422Z,95701.47
2022-12-04T21:39:05.370Z,95704.13
2022-12-04T21:41:50.726Z,95706.13
2022-12-04T21:44:18.204Z,95705.75
2022-12-04T21:46:45.443Z,95710.38
2022-12-04T21:49:14.022Z,95708.41
2022-12-04T21:51:56.743Z,95716.06
2022-12-04T21:54:24.302Z,95717.59
2022-12-04T21:56:50.621Z,95716.63
2022-12-04T21:59:17.022Z,95716.94
2022-12-04T22:01:43.950Z,95714.50
2022-12-04T22:04:10.396Z,95721.19
2022-12-04T22:06:38.523Z,95716.63
2022-12-04T22:09:10.847Z,95721.19
2022-12-04T22:11:38.828Z,95732.81
2022-12-04T22:14:05.190Z,95725.97
2022-12-04T22:16:34.639Z,95736.56
2022-12-04T22:19:04.690Z,95731.97
2022-12-04T22:21:31.232Z,95740.81
2022-12-04T22:23:59.424Z,95746.41
2022-12-04T22:26:27.257Z,95728.91
2022-12-04T22:28:54.393Z,95736.09
2022-12-04T22:31:23.831Z,95735.28
2022-12-04T22:33:53.128Z,95743.28
2022-12-04T22:36:23.142Z,95751.63
2022-12-04T22:41:36.124Z,95751.31
2022-12-04T22:44:02.690Z,95744.09
2022-12-04T22:46:29.280Z,95737.25
2022-12-04T22:48:55.704Z,95740.53
2022-12-04T22:51:22.672Z,95732.50
2022-12-04T22:53:52.025Z,95737.00
2022-12-04T22:56:28.224Z,95748.13
2022-12-04T22:58:55.319Z,95742.09
2022-12-04T23:01:26.971Z,95743.44
2022-12-04T23:03:54.945Z,95739.81
2022-12-04T23:06:23.395Z,95734.03
2022-12-04T23:08:55.476Z,95742.53
2022-12-04T23:11:23.162Z,95748.91
2022-12-04T23:13:56.059Z,95743.19
2022-12-04T23:16:24.009Z,95747.03
2022-12-04T23:18:50.654Z,95744.41
2022-12-04T23:21:18.457Z,95738.25
2022-12-04T23:23:46.740Z,95744.78
2022-12-04T23:26:15.762Z,95752.63
2022-12-04T23:28:43.334Z,95751.97
2022-12-04T23:31:11.382Z,95762.72
2022-12-04T23:33:38.417Z,95776.63
2022-12-04T23:36:07.442Z,95779.88
2022-12-04T23:38:36.095Z,95783.16
2022-12-04T23:41:10.496Z,95795.75
2022-12-04T23:43:38.274Z,95791.81
2022-12-04T23:46:10.687Z,95800.47
2022-12-04T23:48:39.110Z,95790.16
2022-12-04T23:51:06.111Z,95799.50
2022-12-04T23:53:32.462Z,95796.91
2022-12-04T23:56:02.941Z,95803.56
2022-12-04T23:58:29.290Z,95802.59
